N5DB KROC-KCLE
Flight info
| Callsign | N5DB |
|---|---|
| Flight time | 0h 45m |
| Altitude | 30000 |
| Route | TRYBE TRYBE4 |
| Aircraft | B738/M-SDE2E3FGHIRWXY/LB1 |
Departure
| Time | 2026-04-29 17:44 |
|---|---|
| Airport | Frederick Douglass Greater Rochester International Airport (KROC) |
Arrival
| Time | 2026-04-29 18:29 |
|---|---|
| Airport | Cleveland Hopkins International Airport (KCLE) |
| Time | Latitude | Longitude | Altitude | Speed | Heading |
|---|---|---|---|---|---|
| 2026-04-29 17:33 | 43.12747 | -77.67439 | 560 ft | 0 kts | 306° |
| 2026-04-29 17:39 | 43.12754 | -77.67438 | 560 ft | 2 kts | 49° |
| 2026-04-29 17:40 | 43.12725 | -77.67429 | 560 ft | 5 kts | 186° |
| 2026-04-29 17:40 | 43.12722 | -77.67430 | 560 ft | 0 kts | 186° |
| 2026-04-29 17:40 | 43.12673 | -77.67429 | 559 ft | 15 kts | 165° |
| 2026-04-29 17:41 | 43.12593 | -77.67311 | 560 ft | 18 kts | 120° |
| 2026-04-29 17:41 | 43.12519 | -77.67142 | 560 ft | 22 kts | 122° |
| 2026-04-29 17:41 | 43.12512 | -77.66927 | 557 ft | 25 kts | 83° |
| 2026-04-29 17:41 | 43.12521 | -77.66672 | 554 ft | 29 kts | 89° |
| 2026-04-29 17:42 | 43.12531 | -77.66379 | 551 ft | 31 kts | 88° |
| 2026-04-29 17:42 | 43.12538 | -77.66069 | 548 ft | 28 kts | 88° |
| 2026-04-29 17:42 | 43.12522 | -77.65856 | 544 ft | 19 kts | 118° |
| 2026-04-29 17:42 | 43.12452 | -77.65739 | 543 ft | 15 kts | 119° |
| 2026-04-29 17:43 | 43.12441 | -77.65581 | 542 ft | 19 kts | 94° |
| 2026-04-29 17:43 | 43.12410 | -77.65403 | 540 ft | 18 kts | 140° |
| 2026-04-29 17:43 | 43.12347 | -77.65444 | 540 ft | 14 kts | 269° |
| 2026-04-29 17:43 | 43.12335 | -77.65891 | 544 ft | 96 kts | 267° |
| 2026-04-29 17:44 | 43.12290 | -77.67219 | 686 ft | 169 kts | 268° |
| 2026-04-29 17:44 | 43.12227 | -77.68753 | 1842 ft | 166 kts | 268° |
| 2026-04-29 17:44 | 43.12161 | -77.70445 | 2447 ft | 193 kts | 268° |
| 2026-04-29 17:44 | 43.12100 | -77.72427 | 3014 ft | 226 kts | 268° |
| 2026-04-29 17:45 | 43.12013 | -77.74660 | 3818 ft | 249 kts | 264° |
| 2026-04-29 17:45 | 43.11710 | -77.76898 | 5315 ft | 240 kts | 252° |
| 2026-04-29 17:45 | 43.10913 | -77.78928 | 6190 ft | 256 kts | 233° |
| 2026-04-29 17:45 | 43.09774 | -77.80887 | 6983 ft | 274 kts | 232° |
| 2026-04-29 17:46 | 43.08611 | -77.82834 | 8380 ft | 266 kts | 230° |
| 2026-04-29 17:46 | 43.07398 | -77.84771 | 9259 ft | 279 kts | 229° |
| 2026-04-29 17:46 | 43.06195 | -77.86922 | 10197 ft | 288 kts | 236° |
| 2026-04-29 17:46 | 43.05145 | -77.89193 | 11399 ft | 286 kts | 237° |
| 2026-04-29 17:47 | 43.04109 | -77.91492 | 12402 ft | 289 kts | 237° |
| 2026-04-29 17:47 | 43.03048 | -77.93832 | 13250 ft | 297 kts | 237° |
| 2026-04-29 17:47 | 43.01949 | -77.96233 | 14105 ft | 304 kts | 237° |
| 2026-04-29 17:47 | 43.00691 | -77.98553 | 14907 ft | 312 kts | 224° |
| 2026-04-29 17:48 | 42.98945 | -78.00373 | 15676 ft | 322 kts | 213° |
| 2026-04-29 17:48 | 42.96998 | -78.01952 | 16359 ft | 335 kts | 211° |
| 2026-04-29 17:48 | 42.94944 | -78.03608 | 16973 ft | 349 kts | 213° |
| 2026-04-29 17:48 | 42.92856 | -78.05385 | 17544 ft | 362 kts | 214° |
| 2026-04-29 17:49 | 42.90712 | -78.07295 | 18216 ft | 372 kts | 215° |
| 2026-04-29 17:49 | 42.88587 | -78.09235 | 19013 ft | 376 kts | 216° |
| 2026-04-29 17:49 | 42.86396 | -78.11253 | 19861 ft | 379 kts | 217° |
| 2026-04-29 17:49 | 42.84211 | -78.13267 | 20623 ft | 384 kts | 217° |
| 2026-04-29 17:50 | 42.81988 | -78.15314 | 21375 ft | 389 kts | 217° |
| 2026-04-29 17:50 | 42.79772 | -78.17353 | 22093 ft | 393 kts | 217° |
| 2026-04-29 17:50 | 42.77492 | -78.19450 | 22760 ft | 398 kts | 217° |
| 2026-04-29 17:50 | 42.75140 | -78.21612 | 23150 ft | 413 kts | 217° |
| 2026-04-29 17:51 | 42.72722 | -78.23834 | 23597 ft | 425 kts | 217° |
| 2026-04-29 17:51 | 42.70273 | -78.26079 | 24199 ft | 431 kts | 217° |
| 2026-04-29 17:51 | 42.67778 | -78.28360 | 24833 ft | 437 kts | 217° |
| 2026-04-29 17:51 | 42.65231 | -78.30685 | 25468 ft | 441 kts | 217° |
| 2026-04-29 17:52 | 42.62691 | -78.33001 | 26087 ft | 445 kts | 217° |
| 2026-04-29 17:52 | 42.61000 | -78.34541 | 26617 ft | 443 kts | 217° |
| 2026-04-29 17:52 | 42.57601 | -78.37631 | 27711 ft | 440 kts | 218° |
| 2026-04-29 17:52 | 42.55065 | -78.39933 | 28642 ft | 435 kts | 218° |
| 2026-04-29 17:53 | 42.52581 | -78.42186 | 29499 ft | 432 kts | 218° |
| 2026-04-29 17:53 | 42.50089 | -78.44449 | 29968 ft | 438 kts | 218° |
| 2026-04-29 17:53 | 42.47568 | -78.46738 | 30007 ft | 435 kts | 218° |
| 2026-04-29 17:53 | 42.45087 | -78.48981 | 29998 ft | 421 kts | 218° |
| 2026-04-29 17:54 | 42.42680 | -78.51154 | 30028 ft | 413 kts | 219° |
| 2026-04-29 17:54 | 42.37906 | -78.55469 | 29932 ft | 409 kts | 219° |
| 2026-04-29 17:55 | 42.33192 | -78.59734 | 29840 ft | 412 kts | 219° |
| 2026-04-29 17:55 | 42.28410 | -78.64055 | 29867 ft | 415 kts | 219° |
| 2026-04-29 17:56 | 42.23595 | -78.68388 | 29888 ft | 415 kts | 218° |
| 2026-04-29 17:56 | 42.18805 | -78.72688 | 29887 ft | 414 kts | 218° |
| 2026-04-29 17:57 | 42.14479 | -78.77620 | 29880 ft | 406 kts | 232° |
| 2026-04-29 17:57 | 42.11487 | -78.84051 | 29871 ft | 402 kts | 246° |
| 2026-04-29 17:58 | 42.09439 | -78.91013 | 29865 ft | 402 kts | 250° |
| 2026-04-29 17:58 | 42.07635 | -78.98136 | 29863 ft | 403 kts | 251° |
| 2026-04-29 17:59 | 42.05850 | -79.05242 | 29862 ft | 403 kts | 251° |
| 2026-04-29 17:59 | 42.04029 | -79.12355 | 29860 ft | 400 kts | 251° |
| 2026-04-29 18:00 | 42.02206 | -79.19366 | 29861 ft | 398 kts | 250° |
| 2026-04-29 18:00 | 42.00380 | -79.26334 | 29862 ft | 399 kts | 250° |
| 2026-04-29 18:01 | 41.98536 | -79.33332 | 29862 ft | 398 kts | 250° |
| 2026-04-29 18:01 | 41.96693 | -79.40301 | 29856 ft | 397 kts | 250° |
| 2026-04-29 18:02 | 41.94848 | -79.47263 | 29852 ft | 396 kts | 250° |
| 2026-04-29 18:02 | 41.92997 | -79.54223 | 29860 ft | 395 kts | 250° |
| 2026-04-29 18:03 | 41.91157 | -79.61124 | 29867 ft | 395 kts | 250° |
| 2026-04-29 18:03 | 41.89299 | -79.68075 | 29865 ft | 400 kts | 250° |
| 2026-04-29 18:04 | 41.87396 | -79.75176 | 29862 ft | 406 kts | 250° |
| 2026-04-29 18:04 | 41.85491 | -79.82262 | 29862 ft | 406 kts | 250° |
| 2026-04-29 18:05 | 41.83579 | -79.89354 | 29870 ft | 407 kts | 250° |
| 2026-04-29 18:05 | 41.81656 | -79.96468 | 29879 ft | 407 kts | 250° |
| 2026-04-29 18:06 | 41.79722 | -80.03594 | 29881 ft | 407 kts | 250° |
| 2026-04-29 18:06 | 41.77794 | -80.10707 | 29880 ft | 407 kts | 250° |
| 2026-04-29 18:07 | 41.75867 | -80.17853 | 29775 ft | 409 kts | 250° |
| 2026-04-29 18:07 | 41.74905 | -80.21420 | 29453 ft | 407 kts | 250° |
| 2026-04-29 18:07 | 41.73959 | -80.24923 | 28904 ft | 402 kts | 250° |
| 2026-04-29 18:07 | 41.73021 | -80.28391 | 28193 ft | 399 kts | 250° |
| 2026-04-29 18:08 | 41.72080 | -80.31862 | 27411 ft | 398 kts | 250° |
| 2026-04-29 18:08 | 41.71143 | -80.35313 | 26582 ft | 398 kts | 250° |
| 2026-04-29 18:08 | 41.70201 | -80.38774 | 25604 ft | 400 kts | 250° |
| 2026-04-29 18:08 | 41.69249 | -80.42271 | 24660 ft | 399 kts | 250° |
| 2026-04-29 18:09 | 41.68324 | -80.45719 | 24251 ft | 390 kts | 250° |
| 2026-04-29 18:09 | 41.67439 | -80.49067 | 23867 ft | 377 kts | 251° |
| 2026-04-29 18:09 | 41.66550 | -80.52391 | 24031 ft | 381 kts | 250° |
| 2026-04-29 18:09 | 41.65631 | -80.55789 | 23872 ft | 399 kts | 250° |
| 2026-04-29 18:10 | 41.64664 | -80.59293 | 23824 ft | 402 kts | 250° |
| 2026-04-29 18:10 | 41.63708 | -80.62724 | 23820 ft | 384 kts | 250° |
| 2026-04-29 18:10 | 41.62786 | -80.66022 | 23489 ft | 377 kts | 249° |
| 2026-04-29 18:10 | 41.61884 | -80.69255 | 23013 ft | 370 kts | 249° |
| 2026-04-29 18:11 | 41.60982 | -80.72481 | 22782 ft | 380 kts | 249° |
| 2026-04-29 18:11 | 41.60028 | -80.75893 | 22330 ft | 410 kts | 249° |
| 2026-04-29 18:11 | 41.59007 | -80.79550 | 21655 ft | 416 kts | 249° |
| 2026-04-29 18:11 | 41.58031 | -80.83030 | 21054 ft | 395 kts | 249° |
| 2026-04-29 18:12 | 41.57070 | -80.86457 | 20461 ft | 384 kts | 249° |
| 2026-04-29 18:12 | 41.56155 | -80.89726 | 19904 ft | 374 kts | 249° |
| 2026-04-29 18:12 | 41.55263 | -80.92915 | 19367 ft | 364 kts | 249° |
| 2026-04-29 18:12 | 41.54380 | -80.96069 | 18832 ft | 355 kts | 248° |
| 2026-04-29 18:13 | 41.53534 | -80.99083 | 18324 ft | 346 kts | 248° |
| 2026-04-29 18:13 | 41.52707 | -81.02048 | 17827 ft | 337 kts | 249° |
| 2026-04-29 18:13 | 41.52003 | -81.04994 | 17352 ft | 329 kts | 253° |
| 2026-04-29 18:13 | 41.51562 | -81.07919 | 16966 ft | 320 kts | 259° |
| 2026-04-29 18:14 | 41.51335 | -81.10846 | 16533 ft | 314 kts | 262° |
| 2026-04-29 18:14 | 41.51215 | -81.13696 | 16049 ft | 308 kts | 263° |
| 2026-04-29 18:14 | 41.51125 | -81.16561 | 15602 ft | 315 kts | 264° |
| 2026-04-29 18:14 | 41.51026 | -81.19507 | 15124 ft | 318 kts | 263° |
| 2026-04-29 18:15 | 41.50921 | -81.22416 | 14636 ft | 314 kts | 263° |
| 2026-04-29 18:15 | 41.50809 | -81.25304 | 14162 ft | 310 kts | 263° |
| 2026-04-29 18:15 | 41.50676 | -81.28139 | 13724 ft | 307 kts | 261° |
| 2026-04-29 18:15 | 41.50385 | -81.30943 | 13263 ft | 304 kts | 257° |
| 2026-04-29 18:16 | 41.49980 | -81.33694 | 12781 ft | 301 kts | 256° |
| 2026-04-29 18:16 | 41.49549 | -81.36398 | 12330 ft | 296 kts | 256° |
| 2026-04-29 18:16 | 41.49141 | -81.39030 | 11886 ft | 289 kts | 256° |
| 2026-04-29 18:16 | 41.48754 | -81.41625 | 11447 ft | 283 kts | 257° |
| 2026-04-29 18:17 | 41.48375 | -81.44178 | 11017 ft | 277 kts | 257° |
| 2026-04-29 18:17 | 41.48009 | -81.46674 | 10586 ft | 268 kts | 258° |
| 2026-04-29 18:17 | 41.47668 | -81.49059 | 10373 ft | 258 kts | 258° |
| 2026-04-29 18:17 | 41.47336 | -81.51400 | 10223 ft | 257 kts | 258° |
| 2026-04-29 18:18 | 41.46994 | -81.53758 | 10083 ft | 263 kts | 258° |
| 2026-04-29 18:18 | 41.46645 | -81.56151 | 9773 ft | 264 kts | 258° |
| 2026-04-29 18:18 | 41.46234 | -81.58503 | 9399 ft | 262 kts | 251° |
| 2026-04-29 18:18 | 41.45398 | -81.60622 | 9159 ft | 260 kts | 234° |
| 2026-04-29 18:19 | 41.44215 | -81.62472 | 8870 ft | 264 kts | 229° |
| 2026-04-29 18:19 | 41.42971 | -81.64293 | 8515 ft | 263 kts | 229° |
| 2026-04-29 18:19 | 41.41756 | -81.66078 | 8210 ft | 260 kts | 228° |
| 2026-04-29 18:19 | 41.40546 | -81.67890 | 8012 ft | 264 kts | 230° |
| 2026-04-29 18:20 | 41.39365 | -81.69746 | 7739 ft | 263 kts | 230° |
| 2026-04-29 18:20 | 41.38177 | -81.71610 | 7528 ft | 262 kts | 230° |
| 2026-04-29 18:20 | 41.36999 | -81.73472 | 7320 ft | 265 kts | 230° |
| 2026-04-29 18:20 | 41.35819 | -81.75348 | 7062 ft | 264 kts | 230° |
| 2026-04-29 18:21 | 41.34654 | -81.77185 | 7033 ft | 259 kts | 230° |
| 2026-04-29 18:21 | 41.33480 | -81.79054 | 7053 ft | 266 kts | 230° |
| 2026-04-29 18:21 | 41.32281 | -81.80980 | 7019 ft | 269 kts | 231° |
| 2026-04-29 18:21 | 41.31103 | -81.82903 | 6969 ft | 268 kts | 231° |
| 2026-04-29 18:22 | 41.29937 | -81.84802 | 7011 ft | 265 kts | 231° |
| 2026-04-29 18:22 | 41.28749 | -81.86684 | 7007 ft | 264 kts | 230° |
| 2026-04-29 18:22 | 41.27561 | -81.88497 | 6999 ft | 263 kts | 229° |
| 2026-04-29 18:22 | 41.26359 | -81.90321 | 6999 ft | 262 kts | 229° |
| 2026-04-29 18:23 | 41.25174 | -81.92150 | 6887 ft | 258 kts | 230° |
| 2026-04-29 18:23 | 41.24007 | -81.93972 | 6394 ft | 260 kts | 230° |
| 2026-04-29 18:23 | 41.22840 | -81.95805 | 5938 ft | 260 kts | 230° |
| 2026-04-29 18:23 | 41.21676 | -81.97642 | 5507 ft | 259 kts | 231° |
| 2026-04-29 18:24 | 41.20710 | -81.99635 | 5051 ft | 258 kts | 249° |
| 2026-04-29 18:24 | 41.20490 | -82.01962 | 4654 ft | 261 kts | 277° |
| 2026-04-29 18:24 | 41.21145 | -82.04174 | 4469 ft | 263 kts | 304° |
| 2026-04-29 18:24 | 41.22543 | -82.05767 | 4278 ft | 266 kts | 332° |
| 2026-04-29 18:25 | 41.24296 | -82.06316 | 4084 ft | 265 kts | 359° |
| 2026-04-29 18:25 | 41.26117 | -82.05803 | 3881 ft | 265 kts | 19° |
| 2026-04-29 18:25 | 41.27815 | -82.04903 | 3702 ft | 263 kts | 22° |
| 2026-04-29 18:25 | 41.29403 | -82.03745 | 3522 ft | 261 kts | 35° |
| 2026-04-29 18:26 | 41.30731 | -82.02129 | 3208 ft | 256 kts | 49° |
| 2026-04-29 18:26 | 41.31753 | -82.00285 | 3064 ft | 244 kts | 54° |
| 2026-04-29 18:26 | 41.32740 | -81.98511 | 3010 ft | 231 kts | 50° |
| 2026-04-29 18:26 | 41.33767 | -81.96970 | 2638 ft | 215 kts | 45° |
| 2026-04-29 18:27 | 41.34746 | -81.95599 | 2443 ft | 193 kts | 47° |
| 2026-04-29 18:27 | 41.35577 | -81.94292 | 2183 ft | 180 kts | 50° |
| 2026-04-29 18:27 | 41.36338 | -81.93066 | 1965 ft | 161 kts | 50° |
| 2026-04-29 18:27 | 41.37024 | -81.91986 | 1727 ft | 145 kts | 47° |
| 2026-04-29 18:28 | 41.37671 | -81.90994 | 1417 ft | 135 kts | 48° |
| 2026-04-29 18:28 | 41.38256 | -81.90067 | 1307 ft | 131 kts | 48° |
| 2026-04-29 18:28 | 41.38839 | -81.89138 | 1152 ft | 130 kts | 47° |
| 2026-04-29 18:28 | 41.39431 | -81.88224 | 963 ft | 131 kts | 46° |
| 2026-04-29 18:29 | 41.40027 | -81.87289 | 787 ft | 131 kts | 47° |
| 2026-04-29 18:29 | 41.40388 | -81.86718 | 751 ft | 104 kts | 48° |
| 2026-04-29 18:29 | 41.40858 | -81.85972 | 773 ft | 50 kts | 50° |
| 2026-04-29 18:29 | 41.41009 | -81.85736 | 775 ft | 29 kts | 45° |